sensor_id;sensor_type;location;lat;lon;timestamp;P1;durP1;ratioP1;P2;durP2;ratioP2
12088;SDS011;6107;49.078;8.578;2023-03-13T00:01:40;10.93;;;2.47;;
12088;SDS011;6107;49.078;8.578;2023-03-13T00:04:09;10.23;;;2.30;;
12088;SDS011;6107;49.078;8.578;2023-03-13T00:06:35;11.00;;;2.73;;
12088;SDS011;6107;49.078;8.578;2023-03-13T00:09:02;9.07;;;2.63;;
12088;SDS011;6107;49.078;8.578;2023-03-13T00:11:30;9.77;;;2.30;;
12088;SDS011;6107;49.078;8.578;2023-03-13T00:13:56;8.53;;;2.40;;
12088;SDS011;6107;49.078;8.578;2023-03-13T00:16:23;11.17;;;2.27;;
12088;SDS011;6107;49.078;8.578;2023-03-13T00:18:51;7.03;;;2.20;;
12088;SDS011;6107;49.078;8.578;2023-03-13T00:21:17;6.23;;;2.03;;
12088;SDS011;6107;49.078;8.578;2023-03-13T00:23:45;9.03;;;2.33;;
12088;SDS011;6107;49.078;8.578;2023-03-13T00:26:12;8.37;;;2.03;;
12088;SDS011;6107;49.078;8.578;2023-03-13T00:28:40;6.73;;;2.00;;
12088;SDS011;6107;49.078;8.578;2023-03-13T00:31:07;9.10;;;2.00;;
12088;SDS011;6107;49.078;8.578;2023-03-13T00:33:38;9.20;;;2.10;;
12088;SDS011;6107;49.078;8.578;2023-03-13T00:36:07;7.40;;;2.30;;
12088;SDS011;6107;49.078;8.578;2023-03-13T00:38:34;8.87;;;2.60;;
12088;SDS011;6107;49.078;8.578;2023-03-13T00:41:04;11.00;;;2.30;;
12088;SDS011;6107;49.078;8.578;2023-03-13T00:43:32;8.10;;;2.00;;
12088;SDS011;6107;49.078;8.578;2023-03-13T00:45:58;11.57;;;2.20;;
12088;SDS011;6107;49.078;8.578;2023-03-13T00:48:23;7.53;;;1.67;;
12088;SDS011;6107;49.078;8.578;2023-03-13T00:50:49;7.83;;;2.27;;
12088;SDS011;6107;49.078;8.578;2023-03-13T00:53:15;9.77;;;2.10;;
12088;SDS011;6107;49.078;8.578;2023-03-13T00:55:57;4.20;;;1.83;;
12088;SDS011;6107;49.078;8.578;2023-03-13T00:58:25;7.60;;;1.90;;
12088;SDS011;6107;49.078;8.578;2023-03-13T01:00:52;9.60;;;2.17;;
12088;SDS011;6107;49.078;8.578;2023-03-13T01:03:19;10.17;;;1.97;;
12088;SDS011;6107;49.078;8.578;2023-03-13T01:05:59;8.80;;;2.20;;
12088;SDS011;6107;49.078;8.578;2023-03-13T01:08:26;8.00;;;2.20;;
12088;SDS011;6107;49.078;8.578;2023-03-13T01:11:03;10.97;;;1.90;;
12088;SDS011;6107;49.078;8.578;2023-03-13T01:13:30;8.53;;;2.07;;
12088;SDS011;6107;49.078;8.578;2023-03-13T01:16:03;7.07;;;2.03;;
12088;SDS011;6107;49.078;8.578;2023-03-13T01:18:30;7.17;;;1.63;;
12088;SDS011;6107;49.078;8.578;2023-03-13T01:20:57;7.07;;;1.70;;
12088;SDS011;6107;49.078;8.578;2023-03-13T01:23:22;6.97;;;1.47;;
12088;SDS011;6107;49.078;8.578;2023-03-13T01:25:48;6.17;;;1.50;;
12088;SDS011;6107;49.078;8.578;2023-03-13T01:28:13;5.27;;;1.70;;
12088;SDS011;6107;49.078;8.578;2023-03-13T01:30:39;4.17;;;1.63;;
12088;SDS011;6107;49.078;8.578;2023-03-13T01:33:04;10.63;;;1.80;;
12088;SDS011;6107;49.078;8.578;2023-03-13T01:35:30;6.50;;;2.10;;
12088;SDS011;6107;49.078;8.578;2023-03-13T01:37:56;10.67;;;2.37;;
12088;SDS011;6107;49.078;8.578;2023-03-13T01:40:21;4.47;;;1.50;;
12088;SDS011;6107;49.078;8.578;2023-03-13T01:48:33;7.43;;;1.40;;
12088;SDS011;6107;49.078;8.578;2023-03-13T01:51:17;5.57;;;1.50;;
12088;SDS011;6107;49.078;8.578;2023-03-13T01:54:13;8.70;;;1.77;;
12088;SDS011;6107;49.078;8.578;2023-03-13T01:59:18;8.63;;;1.43;;
12088;SDS011;6107;49.078;8.578;2023-03-13T02:01:46;5.83;;;1.40;;
12088;SDS011;6107;49.078;8.578;2023-03-13T02:04:15;3.07;;;1.10;;
12088;SDS011;6107;49.078;8.578;2023-03-13T02:06:45;2.67;;;1.27;;
12088;SDS011;6107;49.078;8.578;2023-03-13T02:09:14;4.00;;;1.30;;
12088;SDS011;6107;49.078;8.578;2023-03-13T02:11:46;8.30;;;1.80;;
12088;SDS011;6107;49.078;8.578;2023-03-13T02:14:17;2.37;;;1.10;;
12088;SDS011;6107;49.078;8.578;2023-03-13T02:16:45;4.23;;;1.03;;
12088;SDS011;6107;49.078;8.578;2023-03-13T02:19:55;5.47;;;1.20;;
12088;SDS011;6107;49.078;8.578;2023-03-13T02:22:23;3.50;;;1.20;;
12088;SDS011;6107;49.078;8.578;2023-03-13T02:25:05;6.00;;;1.27;;
12088;SDS011;6107;49.078;8.578;2023-03-13T02:27:50;4.83;;;1.57;;
12088;SDS011;6107;49.078;8.578;2023-03-13T02:30:31;3.57;;;1.20;;
12088;SDS011;6107;49.078;8.578;2023-03-13T02:32:57;6.60;;;2.43;;
12088;SDS011;6107;49.078;8.578;2023-03-13T02:35:24;2.93;;;1.30;;
12088;SDS011;6107;49.078;8.578;2023-03-13T02:37:51;1.57;;;1.07;;
12088;SDS011;6107;49.078;8.578;2023-03-13T02:40:21;2.73;;;1.10;;
12088;SDS011;6107;49.078;8.578;2023-03-13T02:42:55;4.83;;;1.10;;
12088;SDS011;6107;49.078;8.578;2023-03-13T02:45:24;4.43;;;1.30;;
12088;SDS011;6107;49.078;8.578;2023-03-13T02:47:49;4.07;;;1.07;;
12088;SDS011;6107;49.078;8.578;2023-03-13T02:50:15;4.97;;;1.30;;
12088;SDS011;6107;49.078;8.578;2023-03-13T02:52:45;8.63;;;1.40;;
12088;SDS011;6107;49.078;8.578;2023-03-13T02:55:15;3.60;;;1.17;;
12088;SDS011;6107;49.078;8.578;2023-03-13T02:57:46;3.67;;;1.30;;
12088;SDS011;6107;49.078;8.578;2023-03-13T03:00:12;2.63;;;1.20;;
12088;SDS011;6107;49.078;8.578;2023-03-13T03:02:40;5.20;;;1.10;;
12088;SDS011;6107;49.078;8.578;2023-03-13T03:05:06;5.80;;;1.30;;
12088;SDS011;6107;49.078;8.578;2023-03-13T03:07:32;2.47;;;1.00;;
12088;SDS011;6107;49.078;8.578;2023-03-13T03:09:58;3.37;;;1.30;;
12088;SDS011;6107;49.078;8.578;2023-03-13T03:12:23;5.30;;;1.57;;
12088;SDS011;6107;49.078;8.578;2023-03-13T03:14:49;6.43;;;1.43;;
12088;SDS011;6107;49.078;8.578;2023-03-13T03:17:15;5.20;;;1.20;;
12088;SDS011;6107;49.078;8.578;2023-03-13T03:19:40;4.33;;;1.10;;
12088;SDS011;6107;49.078;8.578;2023-03-13T03:22:06;4.40;;;1.00;;
12088;SDS011;6107;49.078;8.578;2023-03-13T03:24:31;4.07;;;1.57;;
12088;SDS011;6107;49.078;8.578;2023-03-13T03:26:56;5.00;;;1.60;;
12088;SDS011;6107;49.078;8.578;2023-03-13T03:29:22;3.97;;;1.30;;
12088;SDS011;6107;49.078;8.578;2023-03-13T03:31:48;1.60;;;1.03;;
12088;SDS011;6107;49.078;8.578;2023-03-13T03:34:13;2.83;;;1.20;;
12088;SDS011;6107;49.078;8.578;2023-03-13T03:36:39;3.60;;;1.00;;
12088;SDS011;6107;49.078;8.578;2023-03-13T03:39:05;4.67;;;1.20;;
12088;SDS011;6107;49.078;8.578;2023-03-13T03:41:31;0.87;;;0.80;;
12088;SDS011;6107;49.078;8.578;2023-03-13T03:43:56;2.77;;;1.00;;
12088;SDS011;6107;49.078;8.578;2023-03-13T03:46:22;1.43;;;0.80;;
12088;SDS011;6107;49.078;8.578;2023-03-13T03:48:48;1.67;;;0.93;;
12088;SDS011;6107;49.078;8.578;2023-03-13T03:51:14;3.57;;;1.07;;
12088;SDS011;6107;49.078;8.578;2023-03-13T03:53:39;3.77;;;1.10;;
12088;SDS011;6107;49.078;8.578;2023-03-13T03:56:05;1.73;;;1.10;;
12088;SDS011;6107;49.078;8.578;2023-03-13T03:58:31;5.03;;;1.50;;
12088;SDS011;6107;49.078;8.578;2023-03-13T04:00:57;2.00;;;0.97;;
12088;SDS011;6107;49.078;8.578;2023-03-13T04:03:23;2.40;;;0.83;;
12088;SDS011;6107;49.078;8.578;2023-03-13T04:05:49;1.13;;;0.90;;
12088;SDS011;6107;49.078;8.578;2023-03-13T04:08:15;3.60;;;1.27;;
12088;SDS011;6107;49.078;8.578;2023-03-13T04:10:41;2.47;;;1.00;;
12088;SDS011;6107;49.078;8.578;2023-03-13T04:13:06;2.20;;;0.77;;
12088;SDS011;6107;49.078;8.578;2023-03-13T04:15:32;2.27;;;1.00;;
12088;SDS011;6107;49.078;8.578;2023-03-13T04:17:57;3.80;;;1.13;;
12088;SDS011;6107;49.078;8.578;2023-03-13T04:20:23;1.97;;;0.97;;
12088;SDS011;6107;49.078;8.578;2023-03-13T04:22:49;1.97;;;1.00;;
12088;SDS011;6107;49.078;8.578;2023-03-13T04:25:14;2.63;;;0.97;;
12088;SDS011;6107;49.078;8.578;2023-03-13T04:27:40;2.67;;;1.00;;
12088;SDS011;6107;49.078;8.578;2023-03-13T04:30:05;2.80;;;0.70;;
12088;SDS011;6107;49.078;8.578;2023-03-13T04:32:33;1.83;;;0.90;;
12088;SDS011;6107;49.078;8.578;2023-03-13T04:34:59;3.23;;;0.97;;
12088;SDS011;6107;49.078;8.578;2023-03-13T04:37:24;3.27;;;1.00;;
12088;SDS011;6107;49.078;8.578;2023-03-13T04:39:50;2.47;;;1.00;;
12088;SDS011;6107;49.078;8.578;2023-03-13T04:42:15;4.50;;;1.80;;
12088;SDS011;6107;49.078;8.578;2023-03-13T04:44:41;2.10;;;1.07;;
12088;SDS011;6107;49.078;8.578;2023-03-13T04:47:07;1.63;;;0.70;;
12088;SDS011;6107;49.078;8.578;2023-03-13T04:49:33;2.73;;;0.90;;
12088;SDS011;6107;49.078;8.578;2023-03-13T04:51:59;3.10;;;1.00;;
12088;SDS011;6107;49.078;8.578;2023-03-13T04:54:24;2.97;;;0.97;;
12088;SDS011;6107;49.078;8.578;2023-03-13T04:56:50;2.57;;;1.03;;
12088;SDS011;6107;49.078;8.578;2023-03-13T04:59:15;2.00;;;0.83;;
12088;SDS011;6107;49.078;8.578;2023-03-13T05:01:41;2.40;;;0.80;;
12088;SDS011;6107;49.078;8.578;2023-03-13T05:04:07;2.80;;;1.00;;
12088;SDS011;6107;49.078;8.578;2023-03-13T05:06:34;2.13;;;1.00;;
12088;SDS011;6107;49.078;8.578;2023-03-13T05:09:00;0.97;;;0.80;;
12088;SDS011;6107;49.078;8.578;2023-03-13T05:11:26;1.33;;;0.73;;
12088;SDS011;6107;49.078;8.578;2023-03-13T05:13:52;1.20;;;0.70;;
12088;SDS011;6107;49.078;8.578;2023-03-13T05:16:17;1.97;;;1.03;;
12088;SDS011;6107;49.078;8.578;2023-03-13T05:18:43;3.10;;;0.87;;
12088;SDS011;6107;49.078;8.578;2023-03-13T05:21:09;1.97;;;1.07;;
12088;SDS011;6107;49.078;8.578;2023-03-13T05:23:34;1.67;;;0.63;;
12088;SDS011;6107;49.078;8.578;2023-03-13T05:26:00;2.40;;;0.67;;
12088;SDS011;6107;49.078;8.578;2023-03-13T05:28:25;2.70;;;1.20;;
12088;SDS011;6107;49.078;8.578;2023-03-13T05:30:51;2.07;;;0.90;;
12088;SDS011;6107;49.078;8.578;2023-03-13T05:33:17;2.03;;;0.80;;
12088;SDS011;6107;49.078;8.578;2023-03-13T05:35:43;2.83;;;0.60;;
12088;SDS011;6107;49.078;8.578;2023-03-13T05:38:09;2.60;;;0.80;;
12088;SDS011;6107;49.078;8.578;2023-03-13T05:40:35;1.43;;;0.60;;
12088;SDS011;6107;49.078;8.578;2023-03-13T05:43:00;1.57;;;0.67;;
12088;SDS011;6107;49.078;8.578;2023-03-13T05:45:26;1.03;;;0.90;;
12088;SDS011;6107;49.078;8.578;2023-03-13T05:47:51;1.53;;;0.83;;
12088;SDS011;6107;49.078;8.578;2023-03-13T05:50:17;1.40;;;0.80;;
12088;SDS011;6107;49.078;8.578;2023-03-13T05:52:42;2.67;;;1.20;;
12088;SDS011;6107;49.078;8.578;2023-03-13T05:55:08;1.70;;;0.80;;
12088;SDS011;6107;49.078;8.578;2023-03-13T05:57:34;1.53;;;0.60;;
12088;SDS011;6107;49.078;8.578;2023-03-13T05:59:59;0.83;;;0.53;;
12088;SDS011;6107;49.078;8.578;2023-03-13T06:02:25;0.90;;;0.60;;
12088;SDS011;6107;49.078;8.578;2023-03-13T06:04:51;0.50;;;0.50;;
12088;SDS011;6107;49.078;8.578;2023-03-13T06:07:16;0.70;;;0.70;;
12088;SDS011;6107;49.078;8.578;2023-03-13T06:09:42;1.23;;;0.73;;
12088;SDS011;6107;49.078;8.578;2023-03-13T06:12:08;2.57;;;0.77;;
12088;SDS011;6107;49.078;8.578;2023-03-13T06:14:35;0.67;;;0.40;;
12088;SDS011;6107;49.078;8.578;2023-03-13T06:17:01;2.00;;;0.60;;
12088;SDS011;6107;49.078;8.578;2023-03-13T06:19:28;1.90;;;0.70;;
12088;SDS011;6107;49.078;8.578;2023-03-13T06:21:53;0.50;;;0.40;;
12088;SDS011;6107;49.078;8.578;2023-03-13T06:24:19;1.03;;;0.60;;
12088;SDS011;6107;49.078;8.578;2023-03-13T06:26:46;1.43;;;0.50;;
12088;SDS011;6107;49.078;8.578;2023-03-13T06:29:12;1.27;;;0.60;;
12088;SDS011;6107;49.078;8.578;2023-03-13T06:31:38;0.60;;;0.60;;
12088;SDS011;6107;49.078;8.578;2023-03-13T06:34:03;1.50;;;0.50;;
12088;SDS011;6107;49.078;8.578;2023-03-13T06:36:29;0.70;;;0.70;;
12088;SDS011;6107;49.078;8.578;2023-03-13T06:38:54;1.40;;;0.50;;
12088;SDS011;6107;49.078;8.578;2023-03-13T06:41:20;0.40;;;0.40;;
12088;SDS011;6107;49.078;8.578;2023-03-13T06:43:45;2.63;;;0.60;;
12088;SDS011;6107;49.078;8.578;2023-03-13T06:46:16;1.97;;;0.80;;
12088;SDS011;6107;49.078;8.578;2023-03-13T06:48:43;1.67;;;0.60;;
12088;SDS011;6107;49.078;8.578;2023-03-13T06:51:10;2.33;;;0.60;;
12088;SDS011;6107;49.078;8.578;2023-03-13T06:53:37;1.20;;;0.70;;
12088;SDS011;6107;49.078;8.578;2023-03-13T06:56:02;2.87;;;0.77;;
12088;SDS011;6107;49.078;8.578;2023-03-13T06:58:28;1.47;;;0.70;;
12088;SDS011;6107;49.078;8.578;2023-03-13T07:00:54;0.50;;;0.50;;
12088;SDS011;6107;49.078;8.578;2023-03-13T07:03:19;2.47;;;0.70;;
12088;SDS011;6107;49.078;8.578;2023-03-13T07:05:45;0.93;;;0.87;;
12088;SDS011;6107;49.078;8.578;2023-03-13T07:08:10;2.03;;;0.70;;
12088;SDS011;6107;49.078;8.578;2023-03-13T07:10:36;0.73;;;0.50;;
12088;SDS011;6107;49.078;8.578;2023-03-13T07:13:01;1.20;;;0.73;;
12088;SDS011;6107;49.078;8.578;2023-03-13T07:15:27;0.63;;;0.57;;
12088;SDS011;6107;49.078;8.578;2023-03-13T07:17:55;0.70;;;0.50;;
12088;SDS011;6107;49.078;8.578;2023-03-13T07:20:21;1.73;;;0.70;;
12088;SDS011;6107;49.078;8.578;2023-03-13T07:22:49;0.87;;;0.70;;
12088;SDS011;6107;49.078;8.578;2023-03-13T07:25:16;0.57;;;0.53;;
12088;SDS011;6107;49.078;8.578;2023-03-13T07:27:42;0.80;;;0.80;;
12088;SDS011;6107;49.078;8.578;2023-03-13T07:30:07;0.77;;;0.70;;
12088;SDS011;6107;49.078;8.578;2023-03-13T07:32:33;0.83;;;0.73;;
12088;SDS011;6107;49.078;8.578;2023-03-13T07:34:59;2.90;;;0.67;;
12088;SDS011;6107;49.078;8.578;2023-03-13T07:37:24;0.90;;;0.80;;
12088;SDS011;6107;49.078;8.578;2023-03-13T07:39:50;1.10;;;0.70;;
12088;SDS011;6107;49.078;8.578;2023-03-13T07:42:15;1.63;;;0.80;;
12088;SDS011;6107;49.078;8.578;2023-03-13T07:44:41;0.87;;;0.70;;
12088;SDS011;6107;49.078;8.578;2023-03-13T07:47:06;0.70;;;0.60;;
12088;SDS011;6107;49.078;8.578;2023-03-13T07:49:32;1.57;;;0.60;;
12088;SDS011;6107;49.078;8.578;2023-03-13T07:51:59;1.60;;;0.40;;
12088;SDS011;6107;49.078;8.578;2023-03-13T07:54:26;2.43;;;0.70;;
12088;SDS011;6107;49.078;8.578;2023-03-13T07:56:51;0.83;;;0.73;;
12088;SDS011;6107;49.078;8.578;2023-03-13T07:59:17;2.10;;;0.70;;
12088;SDS011;6107;49.078;8.578;2023-03-13T08:01:42;0.93;;;0.70;;
12088;SDS011;6107;49.078;8.578;2023-03-13T08:04:10;3.10;;;0.80;;
12088;SDS011;6107;49.078;8.578;2023-03-13T08:06:37;0.83;;;0.50;;
12088;SDS011;6107;49.078;8.578;2023-03-13T08:09:08;1.00;;;0.70;;
12088;SDS011;6107;49.078;8.578;2023-03-13T08:11:34;2.43;;;0.80;;
12088;SDS011;6107;49.078;8.578;2023-03-13T08:13:59;0.70;;;0.70;;
12088;SDS011;6107;49.078;8.578;2023-03-13T08:16:26;0.50;;;0.50;;
12088;SDS011;6107;49.078;8.578;2023-03-13T08:18:54;0.40;;;0.40;;
12088;SDS011;6107;49.078;8.578;2023-03-13T08:21:21;0.50;;;0.50;;
12088;SDS011;6107;49.078;8.578;2023-03-13T08:23:51;1.27;;;0.80;;
12088;SDS011;6107;49.078;8.578;2023-03-13T08:26:19;1.20;;;0.70;;
12088;SDS011;6107;49.078;8.578;2023-03-13T08:28:47;0.43;;;0.43;;
12088;SDS011;6107;49.078;8.578;2023-03-13T08:31:20;0.90;;;0.67;;
12088;SDS011;6107;49.078;8.578;2023-03-13T08:33:50;1.77;;;0.73;;
12088;SDS011;6107;49.078;8.578;2023-03-13T08:36:17;0.83;;;0.70;;
12088;SDS011;6107;49.078;8.578;2023-03-13T08:38:48;0.70;;;0.70;;
12088;SDS011;6107;49.078;8.578;2023-03-13T08:41:15;2.00;;;0.90;;
12088;SDS011;6107;49.078;8.578;2023-03-13T08:43:43;0.77;;;0.63;;
12088;SDS011;6107;49.078;8.578;2023-03-13T08:46:08;1.77;;;0.77;;
12088;SDS011;6107;49.078;8.578;2023-03-13T08:48:34;1.73;;;0.70;;
12088;SDS011;6107;49.078;8.578;2023-03-13T08:51:01;1.90;;;1.00;;
12088;SDS011;6107;49.078;8.578;2023-03-13T08:53:27;1.13;;;0.90;;
12088;SDS011;6107;49.078;8.578;2023-03-13T08:55:53;1.50;;;0.70;;
12088;SDS011;6107;49.078;8.578;2023-03-13T08:58:19;0.70;;;0.67;;
12088;SDS011;6107;49.078;8.578;2023-03-13T09:00:44;1.00;;;0.70;;
12088;SDS011;6107;49.078;8.578;2023-03-13T09:03:10;0.97;;;0.87;;
12088;SDS011;6107;49.078;8.578;2023-03-13T09:05:36;0.67;;;0.67;;
12088;SDS011;6107;49.078;8.578;2023-03-13T09:08:02;1.07;;;0.70;;
12088;SDS011;6107;49.078;8.578;2023-03-13T09:10:27;1.00;;;0.90;;
12088;SDS011;6107;49.078;8.578;2023-03-13T09:12:53;1.40;;;1.00;;
12088;SDS011;6107;49.078;8.578;2023-03-13T09:15:19;1.50;;;0.80;;
12088;SDS011;6107;49.078;8.578;2023-03-13T09:17:44;1.43;;;0.93;;
12088;SDS011;6107;49.078;8.578;2023-03-13T09:20:10;1.43;;;1.00;;
12088;SDS011;6107;49.078;8.578;2023-03-13T09:22:36;1.60;;;0.93;;
12088;SDS011;6107;49.078;8.578;2023-03-13T09:25:01;1.57;;;0.80;;
12088;SDS011;6107;49.078;8.578;2023-03-13T09:27:27;3.03;;;1.20;;
12088;SDS011;6107;49.078;8.578;2023-03-13T09:29:53;1.10;;;1.00;;
12088;SDS011;6107;49.078;8.578;2023-03-13T09:32:18;1.63;;;1.00;;
12088;SDS011;6107;49.078;8.578;2023-03-13T09:34:44;1.10;;;0.82;;
12088;SDS011;6107;49.078;8.578;2023-03-13T09:37:11;1.60;;;1.05;;
12088;SDS011;6107;49.078;8.578;2023-03-13T09:39:36;1.10;;;1.00;;
12088;SDS011;6107;49.078;8.578;2023-03-13T09:44:47;1.80;;;0.98;;
12088;SDS011;6107;49.078;8.578;2023-03-13T09:49:55;1.35;;;1.15;;
12088;SDS011;6107;49.078;8.578;2023-03-13T09:52:36;1.45;;;1.02;;
12088;SDS011;6107;49.078;8.578;2023-03-13T09:55:19;1.27;;;1.10;;
12088;SDS011;6107;49.078;8.578;2023-03-13T10:02:55;1.63;;;1.10;;
12088;SDS011;6107;49.078;8.578;2023-03-13T10:05:25;1.95;;;1.27;;
12088;SDS011;6107;49.078;8.578;2023-03-13T10:07:55;4.53;;;1.30;;
12088;SDS011;6107;49.078;8.578;2023-03-13T10:10:28;2.17;;;1.30;;
12088;SDS011;6107;49.078;8.578;2023-03-13T10:16:17;3.38;;;1.35;;
12088;SDS011;6107;49.078;8.578;2023-03-13T10:18:52;4.10;;;1.23;;
12088;SDS011;6107;49.078;8.578;2023-03-13T10:21:20;2.20;;;1.30;;
12088;SDS011;6107;49.078;8.578;2023-03-13T10:23:53;2.45;;;1.48;;
12088;SDS011;6107;49.078;8.578;2023-03-13T10:26:35;2.42;;;1.38;;
12088;SDS011;6107;49.078;8.578;2023-03-13T10:31:57;3.58;;;1.42;;
12088;SDS011;6107;49.078;8.578;2023-03-13T10:34:26;2.47;;;1.30;;
12088;SDS011;6107;49.078;8.578;2023-03-13T10:36:56;4.20;;;1.83;;
12088;SDS011;6107;49.078;8.578;2023-03-13T10:39:24;1.98;;;1.27;;
12088;SDS011;6107;49.078;8.578;2023-03-13T10:41:56;1.50;;;1.40;;
12088;SDS011;6107;49.078;8.578;2023-03-13T10:44:36;1.98;;;1.23;;
12088;SDS011;6107;49.078;8.578;2023-03-13T10:47:02;2.15;;;1.27;;
12088;SDS011;6107;49.078;8.578;2023-03-13T10:49:29;1.83;;;1.38;;
12088;SDS011;6107;49.078;8.578;2023-03-13T10:52:00;2.13;;;1.40;;
12088;SDS011;6107;49.078;8.578;2023-03-13T10:54:31;3.50;;;1.40;;
12088;SDS011;6107;49.078;8.578;2023-03-13T10:59:42;2.85;;;1.35;;
12088;SDS011;6107;49.078;8.578;2023-03-13T11:02:55;2.33;;;1.33;;
12088;SDS011;6107;49.078;8.578;2023-03-13T11:07:53;3.72;;;1.23;;
12088;SDS011;6107;49.078;8.578;2023-03-13T11:10:20;2.90;;;1.40;;
12088;SDS011;6107;49.078;8.578;2023-03-13T11:12:46;2.15;;;1.45;;
12088;SDS011;6107;49.078;8.578;2023-03-13T11:15:17;2.85;;;1.00;;
12088;SDS011;6107;49.078;8.578;2023-03-13T11:20:36;2.80;;;1.23;;
12088;SDS011;6107;49.078;8.578;2023-03-13T11:28:43;2.08;;;1.23;;
12088;SDS011;6107;49.078;8.578;2023-03-13T11:31:27;2.72;;;1.40;;
12088;SDS011;6107;49.078;8.578;2023-03-13T11:36:46;1.55;;;1.25;;
12088;SDS011;6107;49.078;8.578;2023-03-13T11:56:20;3.13;;;1.35;;
12088;SDS011;6107;49.078;8.578;2023-03-13T12:01:28;3.55;;;1.70;;
12088;SDS011;6107;49.078;8.578;2023-03-13T12:03:59;1.90;;;1.30;;
12088;SDS011;6107;49.078;8.578;2023-03-13T12:11:58;3.60;;;1.60;;
12088;SDS011;6107;49.078;8.578;2023-03-13T12:17:24;3.25;;;1.33;;
12088;SDS011;6107;49.078;8.578;2023-03-13T12:20:05;2.42;;;1.33;;
12088;SDS011;6107;49.078;8.578;2023-03-13T12:25:43;1.73;;;1.33;;
12088;SDS011;6107;49.078;8.578;2023-03-13T12:31:09;2.95;;;1.40;;
12088;SDS011;6107;49.078;8.578;2023-03-13T12:33:50;1.92;;;1.40;;
12088;SDS011;6107;49.078;8.578;2023-03-13T12:36:32;2.53;;;1.40;;
12088;SDS011;6107;49.078;8.578;2023-03-13T12:44:33;2.47;;;1.30;;
12088;SDS011;6107;49.078;8.578;2023-03-13T12:47:15;2.08;;;1.40;;
12088;SDS011;6107;49.078;8.578;2023-03-13T13:00:50;1.80;;;1.15;;
12088;SDS011;6107;49.078;8.578;2023-03-13T13:08:25;5.13;;;1.52;;
12088;SDS011;6107;49.078;8.578;2023-03-13T13:10:51;2.72;;;1.50;;
12088;SDS011;6107;49.078;8.578;2023-03-13T13:13:18;2.08;;;1.50;;
12088;SDS011;6107;49.078;8.578;2023-03-13T13:15:58;1.55;;;1.33;;
12088;SDS011;6107;49.078;8.578;2023-03-13T13:18:35;2.80;;;1.60;;
12088;SDS011;6107;49.078;8.578;2023-03-13T13:23:30;2.28;;;1.58;;
12088;SDS011;6107;49.078;8.578;2023-03-13T13:28:50;1.65;;;1.27;;
12088;SDS011;6107;49.078;8.578;2023-03-13T13:36:55;3.47;;;1.42;;
12088;SDS011;6107;49.078;8.578;2023-03-13T13:39:41;2.95;;;1.50;;
12088;SDS011;6107;49.078;8.578;2023-03-13T13:47:42;1.35;;;1.23;;
12088;SDS011;6107;49.078;8.578;2023-03-13T13:50:17;2.95;;;1.40;;
12088;SDS011;6107;49.078;8.578;2023-03-13T13:52:45;1.35;;;1.25;;
12088;SDS011;6107;49.078;8.578;2023-03-13T13:58:18;1.90;;;1.10;;
12088;SDS011;6107;49.078;8.578;2023-03-13T14:00:52;1.55;;;1.20;;
12088;SDS011;6107;49.078;8.578;2023-03-13T14:03:27;3.95;;;1.20;;
12088;SDS011;6107;49.078;8.578;2023-03-13T14:05:58;2.60;;;1.23;;
12088;SDS011;6107;49.078;8.578;2023-03-13T14:08:30;1.45;;;1.10;;
12088;SDS011;6107;49.078;8.578;2023-03-13T14:11:34;3.75;;;1.23;;
12088;SDS011;6107;49.078;8.578;2023-03-13T14:16:56;1.58;;;1.10;;
12088;SDS011;6107;49.078;8.578;2023-03-13T14:19:26;2.85;;;1.10;;
12088;SDS011;6107;49.078;8.578;2023-03-13T14:22:07;1.67;;;1.20;;
12088;SDS011;6107;49.078;8.578;2023-03-13T14:24:34;3.20;;;1.08;;
12088;SDS011;6107;49.078;8.578;2023-03-13T14:27:00;2.28;;;1.10;;
12088;SDS011;6107;49.078;8.578;2023-03-13T14:29:26;2.05;;;1.10;;
12088;SDS011;6107;49.078;8.578;2023-03-13T14:31:53;1.92;;;1.20;;
12088;SDS011;6107;49.078;8.578;2023-03-13T14:34:23;1.65;;;1.00;;
12088;SDS011;6107;49.078;8.578;2023-03-13T14:36:53;2.50;;;1.55;;
12088;SDS011;6107;49.078;8.578;2023-03-13T14:39:34;3.05;;;1.40;;
12088;SDS011;6107;49.078;8.578;2023-03-13T14:42:02;2.53;;;1.02;;
12088;SDS011;6107;49.078;8.578;2023-03-13T14:44:39;1.20;;;0.80;;
12088;SDS011;6107;49.078;8.578;2023-03-13T14:47:08;3.05;;;1.13;;
12088;SDS011;6107;49.078;8.578;2023-03-13T14:49:53;4.10;;;1.35;;
12088;SDS011;6107;49.078;8.578;2023-03-13T14:52:24;1.50;;;1.05;;
12088;SDS011;6107;49.078;8.578;2023-03-13T14:54:53;4.43;;;1.15;;
12088;SDS011;6107;49.078;8.578;2023-03-13T14:57:23;0.93;;;0.88;;
12088;SDS011;6107;49.078;8.578;2023-03-13T14:59:51;1.40;;;1.08;;
12088;SDS011;6107;49.078;8.578;2023-03-13T15:02:19;4.60;;;1.13;;
12088;SDS011;6107;49.078;8.578;2023-03-13T15:04:48;3.90;;;1.08;;
12088;SDS011;6107;49.078;8.578;2023-03-13T15:07:15;1.88;;;0.88;;
12088;SDS011;6107;49.078;8.578;2023-03-13T15:09:41;2.15;;;1.08;;
12088;SDS011;6107;49.078;8.578;2023-03-13T15:12:14;1.13;;;0.90;;
12088;SDS011;6107;49.078;8.578;2023-03-13T15:14:42;1.42;;;1.10;;
12088;SDS011;6107;49.078;8.578;2023-03-13T15:17:14;2.42;;;1.02;;
12088;SDS011;6107;49.078;8.578;2023-03-13T15:19:55;1.00;;;0.90;;
12088;SDS011;6107;49.078;8.578;2023-03-13T15:22:38;1.10;;;1.00;;
12088;SDS011;6107;49.078;8.578;2023-03-13T15:25:15;1.55;;;1.10;;
12088;SDS011;6107;49.078;8.578;2023-03-13T15:27:50;1.38;;;1.10;;
12088;SDS011;6107;49.078;8.578;2023-03-13T15:30:19;2.53;;;1.00;;
12088;SDS011;6107;49.078;8.578;2023-03-13T15:32:48;3.20;;;1.10;;
12088;SDS011;6107;49.078;8.578;2023-03-13T15:38:09;1.58;;;1.40;;
12088;SDS011;6107;49.078;8.578;2023-03-13T15:40:42;2.03;;;1.10;;
12088;SDS011;6107;49.078;8.578;2023-03-13T15:43:08;3.42;;;1.10;;
12088;SDS011;6107;49.078;8.578;2023-03-13T15:45:35;1.95;;;0.90;;
12088;SDS011;6107;49.078;8.578;2023-03-13T15:48:04;3.00;;;1.00;;
12088;SDS011;6107;49.078;8.578;2023-03-13T15:50:39;3.70;;;1.20;;
12088;SDS011;6107;49.078;8.578;2023-03-13T15:53:10;1.25;;;0.90;;
12088;SDS011;6107;49.078;8.578;2023-03-13T15:55:45;0.85;;;0.80;;
12088;SDS011;6107;49.078;8.578;2023-03-13T15:58:13;2.72;;;1.23;;
12088;SDS011;6107;49.078;8.578;2023-03-13T16:00:39;1.85;;;1.10;;
12088;SDS011;6107;49.078;8.578;2023-03-13T16:03:05;2.28;;;1.00;;
12088;SDS011;6107;49.078;8.578;2023-03-13T16:05:33;3.38;;;1.13;;
12088;SDS011;6107;49.078;8.578;2023-03-13T16:07:58;1.75;;;1.23;;
12088;SDS011;6107;49.078;8.578;2023-03-13T16:10:25;1.23;;;1.00;;
12088;SDS011;6107;49.078;8.578;2023-03-13T16:12:52;2.17;;;1.02;;
12088;SDS011;6107;49.078;8.578;2023-03-13T16:15:18;1.20;;;1.10;;
12088;SDS011;6107;49.078;8.578;2023-03-13T16:17:44;2.45;;;1.27;;
12088;SDS011;6107;49.078;8.578;2023-03-13T16:20:13;4.60;;;1.20;;
12088;SDS011;6107;49.078;8.578;2023-03-13T16:22:43;1.92;;;1.13;;
12088;SDS011;6107;49.078;8.578;2023-03-13T16:25:08;3.92;;;1.30;;
12088;SDS011;6107;49.078;8.578;2023-03-13T16:27:34;2.03;;;1.00;;
12088;SDS011;6107;49.078;8.578;2023-03-13T16:30:00;3.03;;;1.58;;
12088;SDS011;6107;49.078;8.578;2023-03-13T16:32:26;5.97;;;1.10;;
12088;SDS011;6107;49.078;8.578;2023-03-13T16:34:52;4.25;;;1.33;;
12088;SDS011;6107;49.078;8.578;2023-03-13T16:37:18;4.50;;;1.15;;
12088;SDS011;6107;49.078;8.578;2023-03-13T16:39:44;5.68;;;1.25;;
12088;SDS011;6107;49.078;8.578;2023-03-13T16:42:11;3.95;;;1.30;;
12088;SDS011;6107;49.078;8.578;2023-03-13T16:44:36;3.72;;;1.25;;
12088;SDS011;6107;49.078;8.578;2023-03-13T16:47:07;5.60;;;1.23;;
12088;SDS011;6107;49.078;8.578;2023-03-13T16:50:00;3.88;;;1.30;;
12088;SDS011;6107;49.078;8.578;2023-03-13T16:52:26;3.53;;;1.10;;
12088;SDS011;6107;49.078;8.578;2023-03-13T16:54:51;7.20;;;1.38;;
12088;SDS011;6107;49.078;8.578;2023-03-13T16:57:18;3.38;;;1.17;;
12088;SDS011;6107;49.078;8.578;2023-03-13T16:59:47;3.33;;;1.15;;
12088;SDS011;6107;49.078;8.578;2023-03-13T17:02:14;6.57;;;1.30;;
12088;SDS011;6107;49.078;8.578;2023-03-13T17:04:41;6.47;;;1.73;;
12088;SDS011;6107;49.078;8.578;2023-03-13T17:07:21;4.32;;;1.25;;
12088;SDS011;6107;49.078;8.578;2023-03-13T17:09:48;2.40;;;1.20;;
12088;SDS011;6107;49.078;8.578;2023-03-13T17:12:14;4.38;;;1.27;;